Time;durP1;ratioP1;P1;durP2;ratioP2;P2;SDS_P1;SDS_P2;PMS_P1;PMS_P2;Temp;Humidity;BMP_temperature;BMP_pressure;BME280_temperature;BME280_humidity;BME280_pressure;Samples;Min_cycle;Max_cycle;Signal;HPM_P1;HPM_P2
2023/03/28 00:00:23;;;;;;;;;;;;;;;6.73;69.45;94161.44;5056399;28;1910;-53
2023/03/28 00:02:49;;;;;;;;;;;;;;;6.65;68.85;94167.56;5056574;28;961;-53
2023/03/28 00:05:16;;;;;;;;;;;;;;;6.56;69.92;94168.53;5056227;28;1008;-53
2023/03/28 00:07:42;;;;;;;;;;;;;;;6.62;69.97;94175.03;5056323;28;982;-53
2023/03/28 00:10:08;;;;;;;;;;;;;;;6.60;70.11;94182.34;5056622;28;1295;-53
2023/03/28 00:12:34;;;;;;;;;;;;;;;6.53;70.43;94192.78;5056248;28;868;-54
2023/03/28 00:15:03;;;;;;;;;;;;;;;6.55;70.83;94198.75;5056170;28;1065;-53
2023/03/28 00:17:29;;;;;;;;;;;;;;;6.48;70.11;94188.94;5056251;28;969;-53
2023/03/28 00:19:56;;;;;;;;;;;;;;;6.52;69.88;94193.75;5056074;28;1918;-53
2023/03/28 00:22:22;;;;;;;;;;;;;;;6.64;69.64;94192.50;5056020;28;1064;-53
2023/03/28 00:24:50;;;;;;;;;;;;;;;6.62;65.47;94189.16;5056327;28;1708;-53
2023/03/28 00:27:16;;;;;;;;;;;;;;;6.44;65.65;94193.72;5055908;28;1050;-53
2023/03/28 00:29:42;;;;;;;;;;;;;;;6.35;67.03;94203.47;5056190;28;965;-54
2023/03/28 00:32:09;;;;;;;;;;;;;;;6.28;67.34;94202.47;5055716;28;1343;-54
2023/03/28 00:34:35;;;;;;;;;;;;;;;6.26;67.51;94212.41;5056005;28;1025;-54
2023/03/28 00:37:04;;;;;;;;;;;;;;;6.30;66.91;94219.06;5055787;28;1092;-54
2023/03/28 00:39:30;;;;;;;;;;;;;;;6.34;66.92;94223.06;5055116;28;1097;-53
2023/03/28 00:42:00;;;;;;;;;;;;;;;6.29;66.75;94235.97;5055973;28;1980;-54
2023/03/28 00:44:41;;;;;;;;;;;;;;;6.25;65.88;94232.78;5055713;28;1046;-54
2023/03/28 00:47:12;;;;;;;;;;;;;;;6.20;66.23;94244.88;5055911;28;1064;-53
2023/03/28 00:49:38;;;;;;;;;;;;;;;6.16;66.20;94243.53;5055551;28;1318;-54
2023/03/28 00:52:04;;;;;;;;;;;;;;;6.03;64.83;94252.75;5055870;28;966;-53
2023/03/28 00:54:32;;;;;;;;;;;;;;;5.93;64.90;94256.44;5055718;28;973;-54
2023/03/28 00:57:01;;;;;;;;;;;;;;;5.78;64.42;94258.81;5055691;28;1029;-53
2023/03/28 00:59:30;;;;;;;;;;;;;;;5.68;65.38;94261.56;5055287;28;1069;-54
2023/03/28 01:01:56;;;;;;;;;;;;;;;5.52;64.64;94264.91;5055341;28;1981;-54
2023/03/28 01:04:23;;;;;;;;;;;;;;;5.48;65.88;94267.03;5055194;28;1069;-54
2023/03/28 01:06:53;;;;;;;;;;;;;;;5.55;65.29;94266.41;5055435;28;974;-54
2023/03/28 01:09:20;;;;;;;;;;;;;;;5.63;64.12;94269.97;5055135;28;1113;-54
2023/03/28 01:11:46;;;;;;;;;;;;;;;5.65;64.67;94281.25;5053962;28;1121;-53
2023/03/28 01:14:14;;;;;;;;;;;;;;;5.50;64.97;94285.41;5055341;28;1117;-55
2023/03/28 01:16:41;;;;;;;;;;;;;;;5.52;65.33;94295.88;5055097;28;1071;-54
2023/03/28 01:19:27;;;;;;;;;;;;;;;5.40;64.92;94305.88;5055000;28;1041;-54
2023/03/28 01:22:13;;;;;;;;;;;;;;;5.27;63.73;94312.38;5054846;28;1911;-53
2023/03/28 01:24:58;;;;;;;;;;;;;;;5.25;62.94;94324.09;5054832;28;1560;-54
2023/03/28 01:27:41;;;;;;;;;;;;;;;5.06;61.90;94339.09;5054829;28;1105;-53
2023/03/28 01:30:07;;;;;;;;;;;;;;;5.00;61.35;94320.34;5055030;28;1015;-54
2023/03/28 01:32:51;;;;;;;;;;;;;;;4.83;62.77;94317.47;5054599;28;1228;-54
2023/03/28 01:35:21;;;;;;;;;;;;;;;4.86;62.94;94311.91;5054946;28;1012;-54
2023/03/28 01:37:52;;;;;;;;;;;;;;;4.88;63.95;94312.59;5054665;28;1024;-54
2023/03/28 01:40:26;;;;;;;;;;;;;;;4.94;63.10;94313.81;5054453;28;1909;-54
2023/03/28 01:43:10;;;;;;;;;;;;;;;4.91;62.76;94319.38;5054487;28;1116;-54
2023/03/28 01:45:36;;;;;;;;;;;;;;;4.83;63.04;94328.06;5054612;28;980;-54
2023/03/28 01:48:11;;;;;;;;;;;;;;;4.91;63.72;94321.22;5054416;28;954;-54
2023/03/28 01:50:42;;;;;;;;;;;;;;;4.96;63.37;94340.16;5053804;28;1033;-54
2023/03/28 01:53:08;;;;;;;;;;;;;;;4.88;62.96;94336.41;5054552;28;1032;-54
2023/03/28 01:55:40;;;;;;;;;;;;;;;4.84;62.35;94340.34;5054404;28;1202;-54
2023/03/28 01:58:12;;;;;;;;;;;;;;;4.86;62.92;94334.91;5054330;28;1016;-54
2023/03/28 02:00:41;;;;;;;;;;;;;;;4.88;62.58;94344.38;5054160;28;1981;-55
2023/03/28 02:03:10;;;;;;;;;;;;;;;4.75;61.77;94346.50;5054430;28;1028;-54
2023/03/28 02:05:37;;;;;;;;;;;;;;;4.62;62.42;94346.84;5053175;28;1034;-54
2023/03/28 02:08:07;;;;;;;;;;;;;;;4.72;63.74;94345.97;5054256;28;1028;-54
2023/03/28 02:10:33;;;;;;;;;;;;;;;4.56;63.71;94350.06;5054053;28;1041;-54
2023/03/28 02:13:02;;;;;;;;;;;;;;;4.56;63.46;94365.13;5054005;28;1032;-54
2023/03/28 02:15:29;;;;;;;;;;;;;;;4.64;62.65;94357.28;5053934;28;1020;-54
2023/03/28 02:18:01;;;;;;;;;;;;;;;4.69;63.06;94368.28;5053908;28;1211;-54
2023/03/28 02:20:29;;;;;;;;;;;;;;;4.78;63.49;94370.06;5053841;28;1910;-55
2023/03/28 02:22:59;;;;;;;;;;;;;;;4.75;62.49;94375.66;5054030;28;1278;-54
2023/03/28 02:25:25;;;;;;;;;;;;;;;4.78;60.59;94388.59;5034203;28;1052;-54
2023/03/28 02:27:54;;;;;;;;;;;;;;;4.75;61.50;94388.88;5034012;28;977;-54
2023/03/28 02:30:21;;;;;;;;;;;;;;;4.67;62.10;94386.97;5033690;28;1128;-54
2023/03/28 02:32:49;;;;;;;;;;;;;;;4.57;61.73;94395.91;5033582;28;1225;-54
2023/03/28 02:35:23;;;;;;;;;;;;;;;4.63;61.32;94400.59;5033906;28;1036;-54
2023/03/28 02:37:53;;;;;;;;;;;;;;;4.67;60.46;94397.56;5033780;28;1128;-54
2023/03/28 02:40:22;;;;;;;;;;;;;;;4.55;60.57;94400.50;5033440;28;2246;-54
2023/03/28 02:43:01;;;;;;;;;;;;;;;4.52;61.50;94398.97;5032569;28;1034;-54
2023/03/28 02:45:36;;;;;;;;;;;;;;;4.52;61.41;94409.56;5033699;28;980;-54
2023/03/28 02:48:20;;;;;;;;;;;;;;;4.51;61.71;94418.47;5033790;28;993;-54
2023/03/28 02:50:58;;;;;;;;;;;;;;;4.49;61.91;94428.38;5033746;28;961;-54
2023/03/28 02:53:31;;;;;;;;;;;;;;;4.42;62.58;94446.66;5033615;28;977;-54
2023/03/28 02:56:16;;;;;;;;;;;;;;;4.42;62.19;94435.19;5033571;28;1063;-54
2023/03/28 02:58:42;;;;;;;;;;;;;;;4.45;62.15;94446.34;5033553;28;1021;-54
2023/03/28 03:01:09;;;;;;;;;;;;;;;4.45;62.96;94446.34;5033122;28;1991;-54
2023/03/28 03:03:36;;;;;;;;;;;;;;;4.46;62.84;94452.50;5033263;28;1038;-54
2023/03/28 03:06:03;;;;;;;;;;;;;;;4.37;63.54;94458.63;5033463;28;1071;-54
2023/03/28 03:08:29;;;;;;;;;;;;;;;4.44;62.95;94457.06;5033454;28;1016;-55
2023/03/28 03:10:55;;;;;;;;;;;;;;;4.37;63.81;94464.75;5033201;28;1132;-54
2023/03/28 03:13:21;;;;;;;;;;;;;;;4.37;63.15;94463.94;5032989;28;1097;-54
2023/03/28 03:15:48;;;;;;;;;;;;;;;4.34;63.56;94465.03;5033068;28;1030;-54
2023/03/28 03:18:15;;;;;;;;;;;;;;;4.34;63.33;94474.78;5032156;28;1029;-54
2023/03/28 03:20:44;;;;;;;;;;;;;;;4.25;62.65;94477.31;5033211;28;1918;-54
2023/03/28 03:23:11;;;;;;;;;;;;;;;4.22;62.01;94492.63;5034872;28;1595;-54
2023/03/28 03:25:37;;;;;;;;;;;;;;;4.20;62.83;94483.97;5052963;28;962;-54
2023/03/28 03:28:04;;;;;;;;;;;;;;;4.21;63.17;94490.94;5052866;28;974;-54
2023/03/28 03:30:30;;;;;;;;;;;;;;;4.35;62.56;94497.63;5052753;28;1045;-54
2023/03/28 03:32:56;;;;;;;;;;;;;;;4.36;62.54;94491.34;5052792;28;1181;-54
2023/03/28 03:35:23;;;;;;;;;;;;;;;4.37;61.60;94500.97;5052961;28;1098;-54
2023/03/28 03:37:49;;;;;;;;;;;;;;;4.37;62.23;94500.97;5053157;28;1047;-54
2023/03/28 03:40:16;;;;;;;;;;;;;;;4.34;62.12;94507.38;5053034;28;1986;-54
2023/03/28 03:42:42;;;;;;;;;;;;;;;4.24;61.76;94506.53;5052818;28;1043;-53
2023/03/28 03:45:09;;;;;;;;;;;;;;;4.25;62.45;94519.63;5052790;28;969;-53
2023/03/28 03:47:35;;;;;;;;;;;;;;;4.18;61.76;94517.69;5052738;28;1124;-53
2023/03/28 03:50:01;;;;;;;;;;;;;;;4.09;62.42;94514.88;5052798;28;1050;-54
2023/03/28 03:52:27;;;;;;;;;;;;;;;4.03;63.29;94520.72;5051673;28;1204;-53
2023/03/28 03:54:53;;;;;;;;;;;;;;;3.98;63.78;94512.34;5052640;28;1034;-53
2023/03/28 03:57:20;;;;;;;;;;;;;;;3.85;63.05;94511.75;5052510;28;1057;-53
2023/03/28 03:59:46;;;;;;;;;;;;;;;3.85;63.17;94511.75;5052660;28;1029;-53
2023/03/28 04:02:12;;;;;;;;;;;;;;;3.83;63.43;94517.22;5052819;28;1016;-53
2023/03/28 04:04:39;;;;;;;;;;;;;;;3.78;64.02;94519.41;5052790;28;997;-52
2023/03/28 04:07:05;;;;;;;;;;;;;;;3.73;64.76;94518.97;5052838;28;1021;-53
2023/03/28 04:09:31;;;;;;;;;;;;;;;3.71;66.01;94542.91;5052470;28;1093;-53
2023/03/28 04:11:57;;;;;;;;;;;;;;;3.56;67.19;94541.59;5052811;28;965;-53
2023/03/28 04:14:23;;;;;;;;;;;;;;;3.48;67.69;94544.06;5054445;28;966;-53
2023/03/28 04:16:49;;;;;;;;;;;;;;;3.41;67.37;94545.56;5056482;28;1089;-53
2023/03/28 04:19:16;;;;;;;;;;;;;;;3.37;67.95;94549.44;5056337;28;1033;-54
2023/03/28 04:21:46;;;;;;;;;;;;;;;3.40;70.13;94549.19;5056381;28;1910;-54
2023/03/28 04:24:14;;;;;;;;;;;;;;;3.54;68.55;94556.75;5056209;28;1535;-54
2023/03/28 04:26:41;;;;;;;;;;;;;;;3.50;69.12;94563.28;5055948;28;1053;-54
2023/03/28 04:29:08;;;;;;;;;;;;;;;3.29;70.26;94566.78;5056110;28;985;-54
2023/03/28 04:31:37;;;;;;;;;;;;;;;3.36;70.48;94568.91;5055711;28;1244;-55
2023/03/28 04:34:04;;;;;;;;;;;;;;;3.25;71.58;94565.38;5056011;28;1061;-55
2023/03/28 04:36:31;;;;;;;;;;;;;;;3.20;69.94;94572.84;5055999;28;973;-55
2023/03/28 04:39:00;;;;;;;;;;;;;;;3.23;68.61;94564.69;5055806;28;1049;-55
2023/03/28 04:41:27;;;;;;;;;;;;;;;3.28;68.73;94572.19;5055893;28;1980;-55
2023/03/28 04:43:53;;;;;;;;;;;;;;;3.32;69.37;94569.19;5055704;28;1214;-55
2023/03/28 04:46:19;;;;;;;;;;;;;;;3.42;68.65;94574.50;5055739;28;1045;-55
2023/03/28 04:48:46;;;;;;;;;;;;;;;3.18;67.43;94574.78;5055836;28;1059;-54
2023/03/28 04:51:12;;;;;;;;;;;;;;;3.12;68.73;94562.94;5055808;28;997;-55
2023/03/28 04:53:38;;;;;;;;;;;;;;;3.06;69.88;94574.03;5055549;28;1045;-54
2023/03/28 04:56:04;;;;;;;;;;;;;;;3.18;68.89;94571.31;5055463;28;1093;-55
2023/03/28 04:58:31;;;;;;;;;;;;;;;3.23;69.59;94579.72;5055686;28;1402;-55
2023/03/28 05:00:57;;;;;;;;;;;;;;;3.24;70.37;94584.84;5055349;28;1979;-53
2023/03/28 05:03:23;;;;;;;;;;;;;;;3.17;70.32;94596.06;5055493;28;984;-53
2023/03/28 05:05:51;;;;;;;;;;;;;;;3.20;69.70;94591.34;5055588;28;957;-53
2023/03/28 05:08:18;;;;;;;;;;;;;;;3.23;69.71;94600.84;5055494;28;1028;-53
2023/03/28 05:10:44;;;;;;;;;;;;;;;3.21;70.20;94605.41;5055536;28;1093;-54
2023/03/28 05:13:10;;;;;;;;;;;;;;;3.22;69.79;94605.25;5055470;28;1072;-54
2023/03/28 05:15:37;;;;;;;;;;;;;;;3.26;69.00;94614.63;5055488;28;1059;-54
2023/03/28 05:18:03;;;;;;;;;;;;;;;3.21;69.72;94613.34;5055318;28;1005;-53
2023/03/28 05:20:30;;;;;;;;;;;;;;;3.09;69.68;94615.19;5055048;28;1887;-54
2023/03/28 05:22:57;;;;;;;;;;;;;;;3.23;69.52;94617.53;5055153;28;1023;-54
2023/03/28 05:25:23;;;;;;;;;;;;;;;3.26;69.69;94622.56;5035101;28;1028;-54
2023/03/28 05:27:50;;;;;;;;;;;;;;;3.47;69.31;94625.19;5035243;28;1018;-54
2023/03/28 05:30:16;;;;;;;;;;;;;;;3.48;70.29;94623.38;5035210;28;965;-54
2023/03/28 05:32:43;;;;;;;;;;;;;;;3.50;69.95;94638.13;5034840;28;1081;-54
2023/03/28 05:35:10;;;;;;;;;;;;;;;3.44;69.12;94643.09;5035020;28;973;-54
2023/03/28 05:37:36;;;;;;;;;;;;;;;3.31;68.87;94646.75;5034089;28;1049;-54
2023/03/28 05:40:06;;;;;;;;;;;;;;;3.39;69.11;94648.75;5034142;28;1906;-54
2023/03/28 05:42:35;;;;;;;;;;;;;;;3.33;69.94;94651.94;5034619;28;1039;-54
2023/03/28 05:45:02;;;;;;;;;;;;;;;3.29;70.02;94653.16;5033776;28;1054;-54
2023/03/28 05:47:28;;;;;;;;;;;;;;;3.31;70.15;94651.22;5034248;28;1058;-54
2023/03/28 05:49:54;;;;;;;;;;;;;;;3.35;70.41;94654.44;5034661;28;1321;-54
2023/03/28 05:52:20;;;;;;;;;;;;;;;3.42;69.89;94658.25;5034766;28;1044;-54
2023/03/28 05:54:46;;;;;;;;;;;;;;;3.49;69.42;94652.31;5034743;28;1067;-54
2023/03/28 05:57:12;;;;;;;;;;;;;;;3.74;68.34;94655.50;5033370;28;1112;-54
2023/03/28 05:59:39;;;;;;;;;;;;;;;3.75;68.80;94654.53;5034682;28;1017;-54
2023/03/28 06:02:09;;;;;;;;;;;;;;;3.75;67.85;94654.53;5034220;28;1898;-54
2023/03/28 06:04:36;;;;;;;;;;;;;;;4.29;66.30;94656.00;5034618;28;1028;-54
2023/03/28 06:07:02;;;;;;;;;;;;;;;3.98;66.54;94647.25;5034570;28;1025;-54
2023/03/28 06:09:30;;;;;;;;;;;;;;;3.90;67.98;94647.09;5034071;28;961;-54
2023/03/28 06:11:57;;;;;;;;;;;;;;;4.11;68.27;94650.50;5034093;28;1074;-54
2023/03/28 06:14:23;;;;;;;;;;;;;;;4.08;67.36;94652.59;5033964;28;1109;-55
2023/03/28 06:16:49;;;;;;;;;;;;;;;3.87;68.44;94660.56;5034039;28;1054;-55
2023/03/28 06:19:15;;;;;;;;;;;;;;;3.93;67.57;94668.00;5034013;28;1113;-55
2023/03/28 06:21:41;;;;;;;;;;;;;;;3.87;68.94;94672.00;5034089;28;1914;-55
2023/03/28 06:24:08;;;;;;;;;;;;;;;3.87;69.22;94681.72;5043733;28;1361;-54
2023/03/28 06:26:34;;;;;;;;;;;;;;;3.94;68.70;94677.56;5054023;28;977;-54
2023/03/28 06:29:00;;;;;;;;;;;;;;;3.89;68.38;94683.28;5052850;28;973;-53
2023/03/28 06:35:11;;;;;;;;;;;;;;;4.02;64.83;94685.72;5046540;28;1360;-55
2023/03/28 06:37:39;;;;;;;;;;;;;;;4.02;64.73;94692.78;5053149;28;1125;-55
2023/03/28 06:40:05;;;;;;;;;;;;;;;4.15;64.24;94695.22;5052792;28;1918;-55
2023/03/28 06:42:31;;;;;;;;;;;;;;;4.17;62.80;94699.41;5053644;28;1218;-55
2023/03/28 06:44:57;;;;;;;;;;;;;;;4.09;61.96;94688.66;5053537;28;1024;-55
2023/03/28 06:47:24;;;;;;;;;;;;;;;4.27;61.02;94695.00;5053577;28;1043;-54
2023/03/28 06:49:50;;;;;;;;;;;;;;;4.09;62.03;94696.59;5053304;28;1045;-55
2023/03/28 06:52:16;;;;;;;;;;;;;;;4.14;62.89;94698.84;5053149;28;1038;-55
2023/03/28 06:54:42;;;;;;;;;;;;;;;4.22;62.06;94712.25;5052105;28;1021;-55
2023/03/28 06:57:08;;;;;;;;;;;;;;;4.18;62.05;94713.47;5053156;28;1045;-55
2023/03/28 06:59:34;;;;;;;;;;;;;;;4.10;62.33;94719.44;5053096;28;1224;-54
2023/03/28 07:02:00;;;;;;;;;;;;;;;4.36;61.73;94725.09;5053274;28;1979;-55
2023/03/28 07:04:26;;;;;;;;;;;;;;;4.67;61.08;94730.38;5053038;28;1093;-55
2023/03/28 07:06:52;;;;;;;;;;;;;;;4.75;61.61;94727.03;5053376;28;974;-55
2023/03/28 07:09:18;;;;;;;;;;;;;;;4.93;60.25;94740.44;5053004;28;1020;-55
2023/03/28 07:11:44;;;;;;;;;;;;;;;5.11;60.75;94737.97;5053344;28;1021;-56
2023/03/28 07:14:10;;;;;;;;;;;;;;;5.25;59.77;94743.72;5053180;28;1064;-55
2023/03/28 07:16:36;;;;;;;;;;;;;;;5.20;59.09;94753.06;5052858;28;1054;-55
2023/03/28 07:19:02;;;;;;;;;;;;;;;5.24;57.37;94755.28;5052909;28;1109;-55
2023/03/28 07:21:28;;;;;;;;;;;;;;;5.09;55.63;94760.16;5052684;28;1898;-55
2023/03/28 07:23:54;;;;;;;;;;;;;;;4.84;57.27;94763.31;5053037;28;1285;-55
2023/03/28 07:26:20;;;;;;;;;;;;;;;5.01;55.28;94761.81;5052800;28;1072;-55
2023/03/28 07:28:46;;;;;;;;;;;;;;;5.43;55.14;94766.88;5052864;28;920;-55
2023/03/28 07:31:13;;;;;;;;;;;;;;;5.83;54.76;94771.19;5053049;28;1045;-56
2023/03/28 07:33:39;;;;;;;;;;;;;;;6.22;51.92;94779.97;5052781;28;1253;-56
2023/03/28 07:36:06;;;;;;;;;;;;;;;6.65;52.59;94783.03;5052988;28;1021;-56
2023/03/28 07:38:34;;;;;;;;;;;;;;;6.66;51.82;94784.72;5052816;28;977;-55
2023/03/28 07:41:00;;;;;;;;;;;;;;;6.97;51.17;94789.75;5053192;28;1983;-56
2023/03/28 07:43:26;;;;;;;;;;;;;;;7.28;50.28;94798.22;5052586;28;1045;-56
2023/03/28 07:45:58;;;;;;;;;;;;;;;6.75;50.59;94797.09;5051473;28;1093;-56
2023/03/28 07:48:24;;;;;;;;;;;;;;;6.47;51.42;94792.72;5053120;28;1137;-56
2023/03/28 07:50:50;;;;;;;;;;;;;;;6.10;51.93;94790.88;5056769;28;962;-56
2023/03/28 07:53:16;;;;;;;;;;;;;;;5.80;52.38;94795.34;5056523;28;1061;-56
2023/03/28 07:55:44;;;;;;;;;;;;;;;5.53;52.93;94798.72;5055389;28;993;-55
2023/03/28 07:58:10;;;;;;;;;;;;;;;5.16;53.74;94786.94;5056360;28;1044;-56
2023/03/28 08:00:36;;;;;;;;;;;;;;;5.21;54.36;94797.13;5056642;28;1987;-56
2023/03/28 08:03:02;;;;;;;;;;;;;;;5.32;53.40;94796.19;5056640;28;1052;-56
2023/03/28 08:05:28;;;;;;;;;;;;;;;5.30;53.22;94795.47;5056277;28;1009;-55
2023/03/28 08:07:54;;;;;;;;;;;;;;;5.35;53.59;94795.88;5056416;28;1215;-56
2023/03/28 08:10:20;;;;;;;;;;;;;;;5.52;51.39;94813.78;5056158;28;1036;-55
2023/03/28 08:12:46;;;;;;;;;;;;;;;5.67;52.78;94808.88;5056161;28;1060;-55
2023/03/28 08:15:12;;;;;;;;;;;;;;;6.26;52.79;94801.75;5056369;28;972;-56
2023/03/28 08:17:38;;;;;;;;;;;;;;;6.97;51.64;94808.34;5056306;28;1053;-56
2023/03/28 08:20:08;;;;;;;;;;;;;;;7.08;51.58;94813.47;5056141;28;1906;-56
2023/03/28 08:22:34;;;;;;;;;;;;;;;6.94;48.74;94822.75;5056251;28;1064;-56
2023/03/28 08:25:00;;;;;;;;;;;;;;;6.53;49.82;94816.91;5056121;28;1241;-56
2023/03/28 08:27:26;;;;;;;;;;;;;;;6.07;51.91;94823.88;5055834;28;1054;-56
2023/03/28 08:29:52;;;;;;;;;;;;;;;6.10;52.28;94828.03;5056085;28;1047;-56
2023/03/28 08:32:19;;;;;;;;;;;;;;;5.76;52.10;94833.75;5056347;28;969;-56
2023/03/28 08:34:45;;;;;;;;;;;;;;;5.35;53.83;94846.25;5055688;28;1280;-56
2023/03/28 08:37:11;;;;;;;;;;;;;;;5.02;55.66;94837.66;5055928;28;1012;-56
2023/03/28 08:39:40;;;;;;;;;;;;;;;4.84;57.58;94842.78;5055712;28;925;-55
2023/03/28 08:42:15;;;;;;;;;;;;;;;4.83;59.41;94836.63;5055587;28;1910;-55
2023/03/28 08:44:50;;;;;;;;;;;;;;;4.92;60.42;94831.50;5055798;28;1036;-56
2023/03/28 08:47:18;;;;;;;;;;;;;;;5.07;59.88;94840.75;5055555;28;1069;-56
2023/03/28 08:49:47;;;;;;;;;;;;;;;5.32;58.85;94844.72;5055843;28;978;-56
2023/03/28 08:52:16;;;;;;;;;;;;;;;5.23;58.48;94838.41;5055411;28;1116;-56
2023/03/28 08:54:51;;;;;;;;;;;;;;;5.48;56.18;94844.19;5055306;28;969;-55
2023/03/28 08:57:20;;;;;;;;;;;;;;;5.84;56.06;94840.03;5055534;28;989;-56
2023/03/28 08:59:49;;;;;;;;;;;;;;;6.26;53.84;94857.50;5053962;28;994;-56
2023/03/28 09:02:20;;;;;;;;;;;;;;;6.49;53.33;94852.72;5055044;28;1891;-55
2023/03/28 09:04:46;;;;;;;;;;;;;;;7.07;54.65;94850.81;5055311;28;977;-56
2023/03/28 09:07:12;;;;;;;;;;;;;;;7.42;52.36;94860.72;5055082;28;1006;-56
2023/03/28 09:09:44;;;;;;;;;;;;;;;7.29;52.70;94865.56;5055337;28;1008;-57
2023/03/28 09:12:29;;;;;;;;;;;;;;;6.70;51.93;94880.91;5055396;28;974;-56
2023/03/28 09:15:18;;;;;;;;;;;;;;;5.82;50.98;94894.19;5055342;28;1001;-56
2023/03/28 09:17:44;;;;;;;;;;;;;;;5.44;51.46;94890.50;5055215;28;1044;-55
2023/03/28 09:20:10;;;;;;;;;;;;;;;5.46;49.69;94901.81;5055172;28;1910;-56
2023/03/28 09:22:36;;;;;;;;;;;;;;;6.03;49.63;94902.06;5055047;28;1067;-55
2023/03/28 09:25:21;;;;;;;;;;;;;;;6.40;48.33;94907.50;5054732;28;1300;-56
2023/03/28 09:27:50;;;;;;;;;;;;;;;6.39;46.90;94903.19;5054766;28;1066;-55
2023/03/28 09:30:18;;;;;;;;;;;;;;;6.28;46.61;94902.47;5054837;28;977;-55
2023/03/28 09:32:44;;;;;;;;;;;;;;;6.49;45.88;94904.97;5055045;28;1017;-55
2023/03/28 09:35:15;;;;;;;;;;;;;;;6.89;45.12;94901.28;5054440;28;1236;-55
2023/03/28 09:37:42;;;;;;;;;;;;;;;7.33;44.24;94899.69;5054716;28;1024;-55
2023/03/28 09:40:15;;;;;;;;;;;;;;;7.36;45.62;94888.75;5054626;28;1914;-56
2023/03/28 09:42:41;;;;;;;;;;;;;;;7.57;44.73;94891.16;5054524;28;933;-56
2023/03/28 09:45:26;;;;;;;;;;;;;;;7.53;45.59;94895.13;5054776;28;977;-56
2023/03/28 09:47:52;;;;;;;;;;;;;;;7.20;43.48;94907.16;5054647;28;1001;-56
2023/03/28 09:50:18;;;;;;;;;;;;;;;7.33;44.83;94915.63;5054408;28;973;-56
2023/03/28 09:52:45;;;;;;;;;;;;;;;7.22;44.82;94908.69;5053371;28;967;-56
2023/03/28 09:55:15;;;;;;;;;;;;;;;7.45;45.27;94902.16;5054117;28;1108;-55
2023/03/28 09:58:00;;;;;;;;;;;;;;;8.51;46.32;94908.56;5054506;28;1025;-55
2023/03/28 10:00:26;;;;;;;;;;;;;;;9.37;41.61;94928.28;5054144;28;1987;-56
2023/03/28 10:02:52;;;;;;;;;;;;;;;9.27;41.48;94924.91;5054270;28;977;-56
2023/03/28 10:05:32;;;;;;;;;;;;;;;8.63;42.71;94922.47;5054334;28;977;-55
2023/03/28 10:08:01;;;;;;;;;;;;;;;8.77;43.26;94921.91;5053932;28;1053;-55
2023/03/28 10:10:28;;;;;;;;;;;;;;;8.82;42.79;94929.47;5054037;28;1042;-55
2023/03/28 10:12:55;;;;;;;;;;;;;;;9.04;43.06;94922.75;5053206;28;1092;-56
2023/03/28 10:15:29;;;;;;;;;;;;;;;9.22;42.57;94928.06;5054073;28;969;-55
2023/03/28 10:17:57;;;;;;;;;;;;;;;9.04;41.67;94928.09;5054176;28;1031;-55
2023/03/28 10:20:23;;;;;;;;;;;;;;;8.95;40.87;94940.56;5053536;28;1905;-55
2023/03/28 10:22:51;;;;;;;;;;;;;;;9.09;42.70;94923.13;5053994;28;949;-56
2023/03/28 10:25:22;;;;;;;;;;;;;;;9.01;42.27;94922.25;5053742;28;1165;-55
2023/03/28 10:27:50;;;;;;;;;;;;;;;9.29;40.72;94922.91;5053867;28;980;-56
2023/03/28 10:30:21;;;;;;;;;;;;;;;9.25;41.11;94926.88;5053845;28;1001;-55
2023/03/28 10:33:07;;;;;;;;;;;;;;;9.63;41.40;94922.91;5053542;28;1054;-56
2023/03/28 10:35:33;;;;;;;;;;;;;;;9.91;41.38;94915.47;5053369;28;1098;-55
2023/03/28 10:38:03;;;;;;;;;;;;;;;8.98;40.20;94918.91;5053442;28;1042;-55
2023/03/28 10:40:30;;;;;;;;;;;;;;;8.81;41.71;94926.94;5053313;28;1902;-55
2023/03/28 10:42:57;;;;;;;;;;;;;;;8.81;41.75;94935.78;5053537;28;965;-55
2023/03/28 10:45:23;;;;;;;;;;;;;;;8.64;41.70;94926.00;5053164;28;1037;-55
2023/03/28 10:47:51;;;;;;;;;;;;;;;8.57;40.55;94926.63;5053597;28;1060;-56
2023/03/28 10:50:23;;;;;;;;;;;;;;;8.38;42.48;94916.94;5053128;28;1050;-56
2023/03/28 10:53:12;;;;;;;;;;;;;;;8.49;40.22;94937.19;5053490;28;970;-56
2023/03/28 10:55:57;;;;;;;;;;;;;;;8.35;40.69;94943.03;5033967;28;1162;-56
2023/03/28 10:58:43;;;;;;;;;;;;;;;8.69;40.94;94918.34;5053370;28;1056;-56
2023/03/28 11:01:18;;;;;;;;;;;;;;;8.33;40.73;94943.19;5052836;28;1910;-56
2023/03/28 11:04:03;;;;;;;;;;;;;;;8.46;40.55;94944.66;5053285;28;969;-55
2023/03/28 11:06:35;;;;;;;;;;;;;;;8.78;39.78;94942.28;5053344;28;1001;-56
2023/03/28 11:09:06;;;;;;;;;;;;;;;8.38;38.81;94950.72;5053100;28;1105;-54
2023/03/28 11:11:43;;;;;;;;;;;;;;;7.86;38.87;94955.84;5053134;28;1032;-55
2023/03/28 11:14:24;;;;;;;;;;;;;;;7.70;40.59;94956.47;5053221;28;969;-55
2023/03/28 11:16:50;;;;;;;;;;;;;;;7.98;40.23;94952.81;5052940;28;990;-55
2023/03/28 11:19:34;;;;;;;;;;;;;;;7.63;39.68;94961.56;5052849;28;1053;-55
2023/03/28 11:22:12;;;;;;;;;;;;;;;7.67;39.44;94948.81;5052723;28;2032;-55
2023/03/28 11:24:47;;;;;;;;;;;;;;;7.52;38.83;94938.66;5059757;28;1304;-55
2023/03/28 11:27:18;;;;;;;;;;;;;;;7.51;39.58;94950.28;5059478;28;1052;-54
2023/03/28 11:29:48;;;;;;;;;;;;;;;7.50;40.00;94947.78;5059788;28;1233;-55
2023/03/28 11:32:20;;;;;;;;;;;;;;;7.31;39.33;94948.69;5059458;28;1124;-55
2023/03/28 11:35:12;;;;;;;;;;;;;;;7.35;40.20;94950.06;5059352;28;1077;-56
2023/03/28 11:37:43;;;;;;;;;;;;;;;7.57;38.55;94952.34;5057307;28;1642;-55
2023/03/28 11:40:17;;;;;;;;;;;;;;;7.33;39.72;94955.53;5059709;28;1910;-55
2023/03/28 11:42:50;;;;;;;;;;;;;;;7.02;38.08;94992.16;5059770;28;965;-55
2023/03/28 11:45:23;;;;;;;;;;;;;;;7.18;38.92;94986.25;5059574;28;1058;-55
2023/03/28 11:48:03;;;;;;;;;;;;;;;7.22;38.58;94975.16;5059598;28;1013;-55
2023/03/28 11:50:50;;;;;;;;;;;;;;;7.17;38.11;94989.88;5059855;28;1028;-55
2023/03/28 11:53:22;;;;;;;;;;;;;;;7.35;39.73;94980.16;5052034;28;1436;-55
2023/03/28 11:55:51;;;;;;;;;;;;;;;7.14;39.31;94977.72;5059275;28;1120;-55
2023/03/28 11:58:28;;;;;;;;;;;;;;;7.45;39.13;94980.13;5059483;28;1007;-55
2023/03/28 12:00:57;;;;;;;;;;;;;;;7.46;40.19;94965.03;5059204;28;1976;-55
2023/03/28 12:03:34;;;;;;;;;;;;;;;7.41;38.34;94979.56;5059340;28;1048;-55
2023/03/28 12:06:13;;;;;;;;;;;;;;;7.35;38.70;94971.34;5059339;28;1010;-56
2023/03/28 12:08:44;;;;;;;;;;;;;;;7.45;39.41;94984.59;5059464;28;972;-55
2023/03/28 12:11:14;;;;;;;;;;;;;;;7.52;38.64;94975.91;5059332;28;1061;-55
2023/03/28 12:13:49;;;;;;;;;;;;;;;7.42;38.54;94965.31;5059164;28;1065;-55
2023/03/28 12:16:19;;;;;;;;;;;;;;;7.27;39.29;94976.56;5059329;28;997;-55
2023/03/28 12:18:50;;;;;;;;;;;;;;;7.15;38.83;94986.50;5059242;28;953;-55
2023/03/28 12:21:32;;;;;;;;;;;;;;;6.99;38.66;94984.47;5058795;28;1909;-55
2023/03/28 12:24:16;;;;;;;;;;;;;;;6.80;38.81;94994.16;5059274;28;1276;-55
2023/03/28 12:26:52;;;;;;;;;;;;;;;7.08;40.16;94977.47;5058200;28;981;-55
2023/03/28 12:29:27;;;;;;;;;;;;;;;7.12;39.01;94976.19;5059156;28;1035;-55
2023/03/28 12:31:59;;;;;;;;;;;;;;;7.20;39.27;95002.88;5059436;28;996;-55
2023/03/28 12:34:37;;;;;;;;;;;;;;;7.17;38.20;94998.72;5057038;28;1101;-56
2023/03/28 12:37:18;;;;;;;;;;;;;;;7.11;38.84;95001.91;5055927;28;1040;-54
2023/03/28 12:39:57;;;;;;;;;;;;;;;7.16;39.42;94994.34;5055867;28;966;-55
2023/03/28 12:42:25;;;;;;;;;;;;;;;7.32;40.40;94992.91;5055589;28;1902;-55
2023/03/28 12:44:54;;;;;;;;;;;;;;;7.57;39.49;94994.94;5055985;28;997;-55
2023/03/28 12:47:22;;;;;;;;;;;;;;;7.31;38.63;95002.72;5055462;28;1081;-55
2023/03/28 12:49:52;;;;;;;;;;;;;;;7.13;37.23;95004.44;5055726;28;981;-55
2023/03/28 12:52:29;;;;;;;;;;;;;;;7.14;38.10;95004.31;5055572;28;989;-55
2023/03/28 12:55:00;;;;;;;;;;;;;;;6.99;37.76;94997.75;5055583;28;1275;-54
2023/03/28 12:57:42;;;;;;;;;;;;;;;7.02;38.14;95000.16;5055733;28;966;-54
2023/03/28 13:00:27;;;;;;;;;;;;;;;7.01;39.06;95001.09;5055720;28;1313;-54
2023/03/28 13:02:56;;;;;;;;;;;;;;;6.97;39.05;94999.72;5055409;28;1120;-55
2023/03/28 13:05:28;;;;;;;;;;;;;;;7.04;39.40;95011.47;5055195;28;1045;-54
2023/03/28 13:07:57;;;;;;;;;;;;;;;7.01;39.63;95001.09;5055532;28;1300;-54
2023/03/28 13:10:39;;;;;;;;;;;;;;;7.01;39.45;95007.25;5055444;28;1040;-54
2023/03/28 13:13:32;;;;;;;;;;;;;;;7.00;39.84;95005.59;5055256;28;1117;-55
2023/03/28 13:16:17;;;;;;;;;;;;;;;7.38;38.66;95014.47;5039433;28;1287;-55
2023/03/28 13:18:47;;;;;;;;;;;;;;;7.76;39.97;95017.13;5055462;28;965;-55
2023/03/28 13:21:33;;;;;;;;;;;;;;;7.97;38.87;95012.38;5054803;28;2000;-55
2023/03/28 13:23:59;;;;;;;;;;;;;;;7.66;38.52;95019.81;5054863;28;1546;-55
2023/03/28 13:26:45;;;;;;;;;;;;;;;7.36;39.22;95015.56;5054795;28;1017;-54